Honobia, Oklahoma
Current Conditions -  °F | °C
As of 7:35 PM on Friday 19 Dec 2014 (Local Time) from KRKR Reporting Station
Haze Haze  
Wind Chill: 42°   Ceiling: 800
Heat Index: 42°   Visibility: 5mi
Dew Point: 40°   Wind: 0mph
Humidity: 92%   Direction: NA
Pressure: 30.21"   Gusts: NA
Location:  34.54°N, 94.94°W
Report Text: KRKR 200135Z AUTO 00000KT 5SM BR BKN008 OVC013 06/04 A3021 RMK AO2 T00560044
Loading
Personal Weather Stations






























Interactive Weather Map New forecast layout! Learn more

10-Day Weather Forecast

Advertisements
Track Severe Weather on mobile